Terminal Aerodrome Forecast
Issued by NWS Twin Cities, MN

Home | Current Version | Previous Version | Graphics & Text | Print | Product List | Glossary On
Versions: 1 2 3 4 5 6 7 8 9 10 11 12 13 14
993
FTUS43 KMPX 201139
TAFSTC
TAF
KSTC 201139Z 2012/2112 27004KT P6SM BKN150
     FM201400 25003KT P6SM OVC100
     FM210600 33002KT P6SM VCSH BKN050=

USA.gov is the U.S. government's official web portal to all federal, state and local government web resources and services.